• Join FlightAware (Why Join?)
  • Login
  • US Flag 
08:52PM EST


 

Airport Tracker/Info


-or-


 

Live Flight TrackerFlight Track Log ✈ UAL4849 ✈ 24-Apr-2013 ✈ KROC - KEWR

Flight Track Log - Related Links

Times and Time Zones

All times are in EDT time to prevent confusion due to time zone crossing. See the UAL4849 flight status page for this flight to view local times or setup timezone preferences in your user account.

Time Position Orientation Groundspeed Altitude Reporting Facility
EDT Latitude Longitude Course Direction KTS MPH feet Rate Location/Type
10:28AM 43.1056 -77.6883 216° Southwest 118 136 1,100  Level Cleveland Center
10:28AM 43.0933 -77.7003 216° Southwest 112 129 2,100 1,380 Climbing Cleveland Center
10:29AM 43.0619 -77.6903 167° South 157 181 3,200 1,140 Climbing Cleveland Center
10:30AM 43.0436 -77.6344 114° Southeast 197 227 4,400 1,260 Climbing Cleveland Center
10:31AM 43.0214 -77.5758 117° Southeast 196 226 5,700 1,320 Climbing Cleveland Center
10:32AM 43.0031 -77.5114 111° Southeast 186 214 7,100 1,200 Climbing Cleveland Center
10:33AM 42.9825 -77.4500 115° Southeast 181 208 8,100 900 Climbing Cleveland Center
10:34AM 42.9578 -77.3831 117° Southeast 181 208 9,000 960 Climbing Cleveland Center
10:35AM 42.9350 -77.3133 114° Southeast 192 221 10,100 1,140 Climbing Cleveland Center
10:36AM 42.9100 -77.2439 116° Southeast 197 227 11,300 960 Climbing Cleveland Center
10:38AM 42.8642 -77.1053 114° Southeast 202 232 13,100 540 Climbing New York Center
10:39AM 42.8350 -77.0233 116° Southeast 213 245 13,100  Level New York Center
10:40AM 42.8000 -76.9381 119° Southeast 237 273 13,100 -60 Level New York Center
10:41AM 42.7608 -76.8494 121° Southeast 260 299 13,000 -60 Descending New York Center
10:42AM 42.7217 -76.7583 120° Southeast 276 318 13,000  Level New York Center
10:43AM 42.6806 -76.6672 122° Southeast 276 318 13,000  Level New York Center
10:44AM 42.6411 -76.5764 121° Southeast 276 318 13,000  Level New York Center
10:45AM 42.5997 -76.4853 122° Southeast 281 323 13,000  Level New York Center
10:47AM 42.5103 -76.2908 122° Southeast 274 315 13,000  Level Boston Center
10:48AM 42.4658 -76.1867 120° Southeast 279 321 13,000  Level Boston Center
10:49AM 42.4228 -76.0969 123° Southeast 284 327 13,000  Level Boston Center
10:50AM 42.3797 -76.0044 122° Southeast 290 334 13,000  Level Boston Center
10:52AM 42.3389 -75.9092 120° Southeast 285 328 13,000  Level Boston Center
10:53AM 42.2900 -75.8056 123° Southeast 285 328 13,000  Level Boston Center
10:54AM 42.2489 -75.7164 122° Southeast 291 335 13,000  Level Boston Center
10:55AM 42.2078 -75.6217 120° Southeast 291 335 13,000  Level Boston Center
10:56AM 42.1644 -75.5269 122° Southeast 291 335 13,000  Level Boston Center
10:57AM 42.1211 -75.4381 123° Southeast 286 329 13,000  Level Boston Center
10:58AM 42.0775 -75.3464 123° Southeast 286 329 13,000  Level Boston Center
10:59AM 42.0383 -75.2494 119° Southeast 286 329 13,000  Level Boston Center
11:00AM 42.0031 -75.1531 116° Southeast 286 329 13,100  Climbing Boston Center
11:01AM 41.9658 -75.0564 117° Southeast 286 329 13,000 -60 Descending Boston Center
11:02AM 41.9244 -74.9458 117° Southeast 291 335 13,000 -600 Level Boston Center
11:03AM 41.8611 -74.8989 151° Southeast 275 316 11,900 -1,260 Descending Boston Center
11:04AM 41.7808 -74.8456 154° Southeast 288 331 10,500 -1,260 Descending Boston Center
11:05AM 41.7192 -74.8014 152° Southeast 294 338 9,400 -1,200 Descending Boston Center
11:06AM 41.6453 -74.7486 152° Southeast 281 323 8,200 -1,200 Descending Boston Center
11:07AM 41.5856 -74.7106 155° Southeast 274 315 7,100 -1,140 Descending Boston Center
11:08AM 41.5117 -74.6606 153° Southeast 274 315 6,000 -480 Descending Boston Center
11:09AM 41.4167 -74.6000 154° Southeast 259 298 6,000  Level New York TRACON
11:10AM 41.3500 -74.6167 191° South 248 285 6,000 -360 Level New York TRACON
11:11AM 41.2833 -74.6167 180° South 262 302 5,300 -540 Descending New York TRACON
11:12AM 41.2167 -74.5833 159° South 260 299 5,000 -180 Descending New York TRACON
11:13AM 41.1500 -74.5167 143° Southeast 258 297 5,000  Level New York TRACON
11:14AM 41.1000 -74.5167 180° South 233 268 5,000  Level New York TRACON
11:15AM 41.0333 -74.5000 169° South 236 272 5,000  Level New York TRACON
11:16AM 40.9833 -74.4333 135° Southeast 257 296 5,000 -120 Level New York TRACON
11:17AM 40.9833 -74.3500 90° East 258 297 4,800 -540 Descending New York TRACON
11:18AM 40.9667 -74.2500 102° East 244 281 4,000 -420 Descending New York TRACON
11:19AM 40.9333 -74.1833 123° Southeast 213 245 4,000  Level New York TRACON
11:20AM 40.9167 -74.1167 108° East 227 261 4,000 -300 Level New York TRACON
11:21AM 40.9167 -74.0333 90° East 219 252 3,400 -540 Descending New York TRACON
11:22AM 40.8667 -74.0500 194° South 168 193 3,000 -300 Descending New York TRACON
11:23AM 40.8333 -74.0833 217° Southwest 160 184 2,800 -540 Descending New York TRACON
11:24AM 40.7833 -74.1000 194° South 159 183 2,000 -840 Descending New York TRACON
11:25AM 40.7500 -74.1333 217° Southwest 117 135 1,200 -720 Descending New York TRACON
11:26AM 40.7333 -74.1500 217° Southwest 114 131 600 -600 Descending New York TRACON
11:28AM 40.6925 -74.1687 192° South  Level Estimated
11:35AM 40.6925 -74.1687 192° South  Level Estimated
11:36AM 40.6925 -74.1687 192° South  Level Estimated